createdAt,value
2019-01-06T00:02:03.054Z,18.93
2019-01-06T00:04:17.614Z,14.30
2019-01-06T00:06:32.093Z,18.70
2019-01-06T00:08:37.590Z,13.90
2019-01-06T00:10:43.124Z,12.10
2019-01-06T00:12:48.536Z,15.50
2019-01-06T00:15:10.536Z,9.17
2019-01-06T00:17:18.730Z,14.43
2019-01-06T00:19:30.389Z,17.93
2019-01-06T00:21:38.537Z,10.80
2019-01-06T00:23:59.946Z,7.47
2019-01-06T00:26:08.126Z,17.00
2019-01-06T00:28:30.084Z,12.13
2019-01-06T00:30:41.672Z,10.40
2019-01-06T00:33:03.702Z,13.60
2019-01-06T00:35:12.419Z,10.93
2019-01-06T00:37:20.557Z,8.87
2019-01-06T00:39:32.216Z,17.60
2019-01-06T00:41:40.423Z,8.33
2019-01-06T00:43:45.871Z,8.37
2019-01-06T00:46:07.857Z,11.40
2019-01-06T00:48:13.306Z,11.03
2019-01-06T00:50:27.541Z,10.83
2019-01-06T00:52:39.030Z,9.07
2019-01-06T00:54:56.506Z,6.77
2019-01-06T00:57:20.235Z,14.40
2019-01-06T00:59:31.301Z,9.63
2019-01-06T01:01:39.913Z,6.67
2019-01-06T01:03:48.148Z,5.83
2019-01-06T01:05:59.301Z,5.73
2019-01-06T01:08:07.147Z,8.33
2019-01-06T01:10:15.442Z,7.40
2019-01-06T01:12:32.842Z,6.00
2019-01-06T01:14:41.418Z,8.07
2019-01-06T01:16:58.692Z,9.53
2019-01-06T01:19:04.149Z,6.73
2019-01-06T01:21:09.574Z,11.00
2019-01-06T01:23:30.316Z,7.70
2019-01-06T01:25:51.003Z,10.13
2019-01-06T01:28:05.455Z,11.20
2019-01-06T01:30:16.896Z,11.87
2019-01-06T01:32:39.057Z,8.27
2019-01-06T01:34:56.472Z,10.50
2019-01-06T01:37:05.085Z,14.80
2019-01-06T01:39:16.295Z,13.07
2019-01-06T01:41:37.879Z,15.30
2019-01-06T01:43:49.069Z,11.83
2019-01-06T01:46:10.907Z,19.63
2019-01-06T01:48:31.709Z,14.63
2019-01-06T01:50:37.117Z,14.97
2019-01-06T01:52:59.008Z,14.77
2019-01-06T01:55:10.336Z,18.23
2019-01-06T01:57:18.684Z,13.43
2019-01-06T01:59:24.166Z,16.00
2019-01-06T02:01:29.639Z,9.63
2019-01-06T02:03:35.096Z,11.30
2019-01-06T02:05:40.527Z,12.13
2019-01-06T02:07:46.122Z,10.17
2019-01-06T02:09:54.485Z,10.77
2019-01-06T02:11:59.932Z,8.17
2019-01-06T02:14:10.836Z,7.23
2019-01-06T02:16:25.259Z,13.43
2019-01-06T02:18:33.472Z,11.23
2019-01-06T02:20:41.571Z,9.23
2019-01-06T02:23:03.533Z,9.10
2019-01-06T02:25:14.518Z,8.40
2019-01-06T02:27:20.019Z,7.93
2019-01-06T02:29:31.498Z,4.67
2019-01-06T02:31:39.391Z,8.47
2019-01-06T02:33:56.861Z,7.07
2019-01-06T02:36:08.048Z,7.03
2019-01-06T02:38:30.218Z,9.63
2019-01-06T02:40:47.728Z,7.87
2019-01-06T02:43:09.382Z,7.10
2019-01-06T02:45:31.141Z,6.17
2019-01-06T02:47:39.221Z,8.03
2019-01-06T02:49:53.513Z,8.20
2019-01-06T02:51:59.016Z,6.07
2019-01-06T02:54:16.728Z,8.50
2019-01-06T02:56:38.112Z,6.80
2019-01-06T02:58:59.808Z,8.33
2019-01-06T03:01:17.166Z,7.87
2019-01-06T03:03:28.327Z,13.43
2019-01-06T03:05:42.984Z,10.20
2019-01-06T03:08:00.730Z,8.93
2019-01-06T03:10:23.481Z,6.27
2019-01-06T03:12:37.678Z,7.20
2019-01-06T03:14:59.437Z,9.97
2019-01-06T03:17:05.022Z,6.50
2019-01-06T03:19:27.069Z,7.37
2019-01-06T03:21:41.337Z,6.00
2019-01-06T03:23:53.012Z,8.50
2019-01-06T03:26:01.435Z,6.80
2019-01-06T03:28:23.191Z,7.70
2019-01-06T03:30:34.616Z,10.00
2019-01-06T03:32:43.024Z,5.87
2019-01-06T03:34:57.570Z,7.80
2019-01-06T03:37:15.315Z,8.77
2019-01-06T03:39:21.074Z,3.37
2019-01-06T03:41:26.798Z,8.37
2019-01-06T03:43:48.591Z,8.07
2019-01-06T03:46:06.251Z,5.93
2019-01-06T03:48:23.598Z,7.30
2019-01-06T03:50:45.560Z,4.53
2019-01-06T03:53:06.246Z,5.73
2019-01-06T03:55:11.975Z,6.70
2019-01-06T03:57:37.123Z,8.13
2019-01-06T03:59:51.829Z,7.93
2019-01-06T04:02:15.282Z,4.53
2019-01-06T04:04:32.964Z,4.20
2019-01-06T04:06:56.741Z,9.00
2019-01-06T04:09:07.903Z,6.87
2019-01-06T04:11:19.310Z,7.33
2019-01-06T04:13:27.569Z,5.00
2019-01-06T04:15:49.471Z,4.47
2019-01-06T04:17:54.953Z,7.47
2019-01-06T04:20:16.874Z,5.03
2019-01-06T04:22:28.310Z,9.43
2019-01-06T04:24:36.153Z,4.50
2019-01-06T04:26:44.302Z,6.63
2019-01-06T04:28:49.834Z,7.97
2019-01-06T04:31:11.693Z,8.03
2019-01-06T04:33:23.061Z,5.27
2019-01-06T04:35:37.357Z,7.07
2019-01-06T04:37:42.833Z,4.80
2019-01-06T04:40:00.392Z,6.43
2019-01-06T04:42:05.900Z,3.83
2019-01-06T04:44:27.833Z,4.73
2019-01-06T04:46:49.701Z,4.10
2019-01-06T04:49:10.765Z,6.30
2019-01-06T04:51:16.354Z,6.40
2019-01-06T04:53:40.225Z,4.63
2019-01-06T04:56:01.937Z,6.13
2019-01-06T04:58:22.378Z,7.47
2019-01-06T05:00:39.780Z,8.83
2019-01-06T05:02:48.077Z,4.57
2019-01-06T05:05:09.822Z,5.80
2019-01-06T05:07:24.322Z,7.27
2019-01-06T05:09:45.824Z,6.60
2019-01-06T05:11:51.333Z,8.60
2019-01-06T05:13:56.791Z,6.10
2019-01-06T05:16:05.355Z,7.43
2019-01-06T05:18:13.305Z,4.63
2019-01-06T05:20:27.802Z,9.97
2019-01-06T05:22:42.409Z,7.97
2019-01-06T05:24:51.069Z,5.20
2019-01-06T05:26:56.509Z,11.60
2019-01-06T05:29:04.438Z,9.30
2019-01-06T05:31:13.666Z,6.70
2019-01-06T05:33:19.132Z,13.17
2019-01-06T05:35:31.658Z,6.93
2019-01-06T05:37:37.668Z,9.53
2019-01-06T05:39:59.067Z,8.40
2019-01-06T05:42:05.126Z,8.03
2019-01-06T05:44:22.591Z,9.00
2019-01-06T05:46:44.267Z,10.33
2019-01-06T05:48:52.486Z,9.20
2019-01-06T05:51:07.115Z,13.53
2019-01-06T05:53:25.165Z,12.13
2019-01-06T05:55:33.604Z,14.30
2019-01-06T05:57:42.575Z,8.77
2019-01-06T06:00:03.135Z,16.33
2019-01-06T06:02:26.077Z,15.63
2019-01-06T06:04:38.109Z,14.03
2019-01-06T06:06:59.772Z,13.17
2019-01-06T06:09:05.265Z,16.43
2019-01-06T06:11:27.008Z,15.70
2019-01-06T06:13:41.882Z,16.00
2019-01-06T06:15:59.494Z,18.67
2019-01-06T06:18:21.816Z,19.47
2019-01-06T06:20:27.477Z,12.13
2019-01-06T06:22:49.844Z,15.80
2019-01-06T06:25:08.118Z,10.80
2019-01-06T06:27:19.614Z,13.80
2019-01-06T06:29:26.793Z,15.33
2019-01-06T06:31:51.549Z,11.70
2019-01-06T06:34:14.839Z,18.60
2019-01-06T06:36:29.574Z,21.60
2019-01-06T06:38:35.261Z,20.23
2019-01-06T06:40:46.808Z,14.23
2019-01-06T06:43:10.630Z,13.33
2019-01-06T06:45:25.279Z,25.63
2019-01-06T06:47:42.361Z,19.17
2019-01-06T06:49:47.815Z,16.03
2019-01-06T06:51:59.055Z,17.57
2019-01-06T06:54:04.831Z,15.40
2019-01-06T06:56:29.600Z,14.20
2019-01-06T06:58:44.710Z,17.33
2019-01-06T07:00:56.736Z,24.20
2019-01-06T07:03:14.408Z,13.77
2019-01-06T07:05:32.051Z,23.40
2019-01-06T07:07:46.034Z,17.30
2019-01-06T07:09:58.064Z,14.50
2019-01-06T07:12:19.909Z,12.60
2019-01-06T07:14:25.394Z,22.10
2019-01-06T07:17:23.963Z,16.93
2019-01-06T07:19:29.533Z,11.90
2019-01-06T07:21:51.645Z,14.77
2019-01-06T07:24:05.881Z,14.30
2019-01-06T07:26:27.813Z,16.17
2019-01-06T07:28:33.280Z,23.00
2019-01-06T07:30:38.767Z,20.77
2019-01-06T07:32:48.992Z,18.47
2019-01-06T07:35:03.618Z,16.70
2019-01-06T07:37:09.053Z,15.23
2019-01-06T07:39:23.467Z,19.20
2019-01-06T07:41:28.926Z,12.00
2019-01-06T07:43:34.418Z,18.73
2019-01-06T07:45:54.842Z,24.67
2019-01-06T07:48:00.286Z,27.57
2019-01-06T07:50:06.017Z,19.77
2019-01-06T07:52:11.522Z,22.83
2019-01-06T07:54:16.933Z,17.47
2019-01-06T07:56:25.406Z,27.30
2019-01-06T07:58:30.826Z,18.87
2019-01-06T08:00:54.350Z,20.70
2019-01-06T08:03:11.471Z,17.17
2019-01-06T08:05:19.615Z,16.13
2019-01-06T08:07:40.034Z,13.93
2019-01-06T08:09:45.548Z,12.47
2019-01-06T08:11:50.968Z,19.13
2019-01-06T08:14:12.730Z,22.67
2019-01-06T08:16:20.934Z,15.83
2019-01-06T08:18:29.177Z,18.20
2019-01-06T08:20:37.316Z,12.10
2019-01-06T08:22:59.046Z,22.00
2019-01-06T08:25:04.473Z,17.00
2019-01-06T08:27:12.732Z,12.60
2019-01-06T08:29:27.197Z,17.47
2019-01-06T08:31:35.572Z,10.73
2019-01-06T08:33:56.224Z,13.17
2019-01-06T08:36:13.983Z,15.13
2019-01-06T08:38:28.165Z,19.60
2019-01-06T08:40:39.451Z,18.80
2019-01-06T08:42:53.789Z,19.03
2019-01-06T08:44:59.277Z,14.33
2019-01-06T08:47:04.746Z,16.37
2019-01-06T08:49:28.296Z,12.33
2019-01-06T08:51:33.816Z,14.60
2019-01-06T08:53:55.800Z,15.63
2019-01-06T08:56:13.305Z,15.57
2019-01-06T08:58:36.780Z,16.90
2019-01-06T09:00:54.587Z,15.63
2019-01-06T09:03:15.028Z,13.23
2019-01-06T09:05:36.922Z,14.87
2019-01-06T09:07:42.415Z,23.00
2019-01-06T09:10:06.230Z,19.97
2019-01-06T09:12:27.847Z,15.13
2019-01-06T09:14:35.993Z,15.30
2019-01-06T09:16:58.021Z,10.83
2019-01-06T09:19:12.274Z,16.37
2019-01-06T09:21:20.693Z,16.77
2019-01-06T09:23:35.454Z,20.83
2019-01-06T09:25:43.658Z,28.67
2019-01-06T09:27:49.261Z,17.50
2019-01-06T09:29:54.710Z,13.90
2019-01-06T09:32:06.350Z,20.57
2019-01-06T09:34:28.331Z,17.10
2019-01-06T09:36:33.800Z,15.47
2019-01-06T09:38:42.208Z,13.23
2019-01-06T09:40:47.757Z,15.17
2019-01-06T09:43:02.176Z,13.07
2019-01-06T09:45:20.463Z,13.20
2019-01-06T09:47:28.535Z,13.93
2019-01-06T09:49:50.300Z,16.90
2019-01-06T09:52:13.873Z,14.53
2019-01-06T09:54:19.315Z,14.13
2019-01-06T09:56:27.825Z,12.67
2019-01-06T09:58:33.270Z,13.80
2019-01-06T10:00:54.970Z,13.07
2019-01-06T10:03:00.417Z,13.50
2019-01-06T10:05:06.322Z,13.60
2019-01-06T10:07:14.393Z,11.50
2019-01-06T10:09:25.636Z,10.47
2019-01-06T10:11:31.066Z,13.83
2019-01-06T10:13:53.158Z,11.43
2019-01-06T10:16:14.621Z,14.90
2019-01-06T10:18:36.406Z,13.33
2019-01-06T10:20:58.488Z,9.57
2019-01-06T10:23:09.891Z,9.23
2019-01-06T10:25:21.146Z,10.43
2019-01-06T10:27:42.869Z,8.90
2019-01-06T10:30:04.804Z,11.97
2019-01-06T10:32:22.241Z,17.27
2019-01-06T10:34:33.631Z,11.47
2019-01-06T10:36:55.544Z,11.57
2019-01-06T10:39:00.968Z,8.83
2019-01-06T10:41:09.464Z,7.67
2019-01-06T10:43:17.622Z,15.77
2019-01-06T10:45:24.243Z,9.73
2019-01-06T10:47:30.046Z,4.87
2019-01-06T10:49:47.329Z,17.50
2019-01-06T10:52:01.782Z,8.33
2019-01-06T10:54:25.362Z,8.47
2019-01-06T10:56:47.029Z,6.83
2019-01-06T10:59:01.540Z,8.83
2019-01-06T11:01:13.189Z,10.43
2019-01-06T11:03:30.674Z,10.40
2019-01-06T11:05:36.098Z,15.07
2019-01-06T11:07:50.678Z,12.87
2019-01-06T11:10:12.549Z,6.60
2019-01-06T11:12:36.811Z,14.53
2019-01-06T11:14:51.071Z,8.23
2019-01-06T11:16:57.012Z,12.03
2019-01-06T11:19:14.359Z,9.67
2019-01-06T11:21:32.098Z,14.27
2019-01-06T11:23:55.542Z,7.77
2019-01-06T11:26:13.069Z,11.80
2019-01-06T11:28:24.318Z,15.13
2019-01-06T11:30:29.788Z,10.30
2019-01-06T11:32:38.389Z,12.50
2019-01-06T11:35:02.289Z,8.03
2019-01-06T11:37:24.036Z,15.00
2019-01-06T11:39:35.222Z,13.07
2019-01-06T11:41:40.702Z,14.07
2019-01-06T11:43:46.151Z,16.17
2019-01-06T11:45:51.627Z,13.73
2019-01-06T11:48:12.593Z,12.57
2019-01-06T11:50:36.072Z,9.43
2019-01-06T11:52:50.096Z,13.63
2019-01-06T11:55:12.158Z,7.03
2019-01-06T11:57:29.926Z,7.00
2019-01-06T11:59:51.612Z,7.83
2019-01-06T12:01:57.189Z,14.57
2019-01-06T12:04:05.418Z,8.20
2019-01-06T12:06:10.995Z,6.67
2019-01-06T12:08:40.679Z,10.30
2019-01-06T12:10:46.821Z,12.33
2019-01-06T12:12:52.344Z,11.63
2019-01-06T12:15:06.750Z,6.30
2019-01-06T12:17:14.946Z,11.27
2019-01-06T12:19:23.094Z,9.80
2019-01-06T12:21:28.517Z,15.97
2019-01-06T12:23:36.849Z,17.30
2019-01-06T12:25:45.037Z,12.40
2019-01-06T12:28:07.118Z,10.87
2019-01-06T12:30:24.741Z,12.50
2019-01-06T12:32:45.189Z,12.20
2019-01-06T12:35:07.138Z,9.20
2019-01-06T12:37:12.548Z,12.67
2019-01-06T12:39:18.094Z,13.43
2019-01-06T12:41:23.574Z,14.17
2019-01-06T12:43:31.740Z,10.77
2019-01-06T12:45:37.222Z,15.93
2019-01-06T12:47:58.906Z,10.10
2019-01-06T12:50:10.150Z,21.33
2019-01-06T12:52:18.313Z,7.67
2019-01-06T12:54:29.952Z,8.37
2019-01-06T12:56:35.414Z,11.20
2019-01-06T12:58:57.135Z,13.57
2019-01-06T13:01:08.522Z,7.03
2019-01-06T13:03:20.026Z,11.87
2019-01-06T13:05:37.374Z,5.73
2019-01-06T13:07:59.282Z,8.83
2019-01-06T13:10:21.293Z,9.47
2019-01-06T13:12:38.973Z,6.57
2019-01-06T13:14:50.427Z,8.17
2019-01-06T13:16:55.880Z,4.57
2019-01-06T13:19:04.314Z,10.17
2019-01-06T13:21:26.301Z,10.07
2019-01-06T13:23:34.927Z,5.07
2019-01-06T13:25:40.383Z,8.27
2019-01-06T13:28:02.209Z,8.73
2019-01-06T13:30:17.099Z,4.60
2019-01-06T13:32:26.268Z,7.90
2019-01-06T13:34:31.689Z,4.10
2019-01-06T13:36:37.187Z,6.70
2019-01-06T13:38:42.610Z,7.47
2019-01-06T13:40:48.101Z,5.37
2019-01-06T13:43:08.802Z,6.47
2019-01-06T13:45:20.035Z,5.63
2019-01-06T13:47:34.703Z,5.70
2019-01-06T13:49:56.182Z,7.20
2019-01-06T13:52:17.017Z,10.03
2019-01-06T13:54:37.680Z,6.07
2019-01-06T13:56:59.272Z,5.43
2019-01-06T13:59:10.719Z,7.77
2019-01-06T14:01:16.189Z,5.63
2019-01-06T14:03:27.406Z,5.77
2019-01-06T14:05:48.782Z,7.93
2019-01-06T14:08:10.445Z,4.97
2019-01-06T14:10:15.880Z,7.93
2019-01-06T14:12:21.450Z,8.43
2019-01-06T14:14:38.890Z,8.53
2019-01-06T14:17:00.623Z,9.03
2019-01-06T14:19:22.369Z,6.47
2019-01-06T14:21:39.783Z,9.13
2019-01-06T14:23:51.305Z,10.07
2019-01-06T14:26:02.498Z,5.97
2019-01-06T14:28:20.241Z,8.27
2019-01-06T14:30:34.936Z,8.47
2019-01-06T14:32:43.118Z,6.23
2019-01-06T14:34:51.214Z,5.47
2019-01-06T14:37:13.334Z,9.00
2019-01-06T14:39:27.950Z,5.27
2019-01-06T14:41:39.201Z,6.67
2019-01-06T14:43:53.615Z,10.97
2019-01-06T14:45:59.084Z,4.83
2019-01-06T14:48:04.554Z,7.80
2019-01-06T14:50:16.189Z,6.33
2019-01-06T14:52:38.290Z,3.27
2019-01-06T14:54:43.791Z,3.03
2019-01-06T14:56:49.215Z,4.93
2019-01-06T14:58:57.662Z,8.43
2019-01-06T15:01:09.006Z,9.23
2019-01-06T15:03:30.613Z,4.27
2019-01-06T15:05:52.340Z,8.63
2019-01-06T15:08:09.777Z,7.90
2019-01-06T15:10:31.685Z,5.87
2019-01-06T15:12:49.154Z,7.13
2019-01-06T15:15:00.728Z,9.37
2019-01-06T15:17:06.214Z,6.13
2019-01-06T15:19:27.980Z,10.27
2019-01-06T15:21:33.439Z,5.57
2019-01-06T15:23:41.594Z,5.90
2019-01-06T15:25:53.053Z,4.07
2019-01-06T15:28:01.421Z,6.53
2019-01-06T15:30:14.986Z,6.30
2019-01-06T15:32:23.197Z,8.83
2019-01-06T15:34:31.570Z,6.07
2019-01-06T15:36:53.491Z,5.47
2019-01-06T15:39:04.807Z,3.17
2019-01-06T15:41:26.677Z,5.93
2019-01-06T15:43:41.330Z,5.47
2019-01-06T15:45:52.574Z,6.17
2019-01-06T15:48:13.294Z,8.47
2019-01-06T15:50:34.714Z,6.50
2019-01-06T15:52:43.146Z,5.43
2019-01-06T15:54:57.485Z,5.20
2019-01-06T15:57:19.336Z,6.77
2019-01-06T15:59:27.777Z,6.60
2019-01-06T16:01:42.508Z,5.17
2019-01-06T16:03:50.661Z,7.40
2019-01-06T16:06:12.194Z,6.63
2019-01-06T16:08:21.145Z,5.07
2019-01-06T16:10:49.205Z,8.43
2019-01-06T16:13:00.648Z,8.30
2019-01-06T16:15:18.545Z,15.10
2019-01-06T16:17:29.708Z,14.07
2019-01-06T16:19:46.947Z,4.53
2019-01-06T16:24:34.517Z,4.43
2019-01-06T16:26:55.231Z,6.30
2019-01-06T16:29:00.591Z,7.93
2019-01-06T16:31:25.556Z,7.00
2019-01-06T16:33:31.235Z,6.10
2019-01-06T16:35:52.141Z,8.67
2019-01-06T16:37:57.570Z,10.50
2019-01-06T16:40:19.422Z,5.07
2019-01-06T16:42:27.701Z,9.13
2019-01-06T16:44:49.434Z,7.37
2019-01-06T16:47:10.132Z,4.57
2019-01-06T16:49:40.571Z,7.17
2019-01-06T16:51:46.026Z,11.10
2019-01-06T16:53:57.346Z,7.60
2019-01-06T16:56:19.281Z,10.70
2019-01-06T16:58:27.662Z,6.80
2019-01-06T17:00:51.092Z,5.17
2019-01-06T17:03:12.953Z,4.43
2019-01-06T17:05:21.396Z,8.03
2019-01-06T17:07:43.171Z,5.57
2019-01-06T17:10:06.949Z,4.50
2019-01-06T17:12:27.246Z,8.80
2019-01-06T17:14:50.878Z,6.10
2019-01-06T17:17:05.561Z,5.83
2019-01-06T17:19:27.495Z,5.33
2019-01-06T17:21:49.166Z,8.27
2019-01-06T17:23:57.553Z,6.20
2019-01-06T17:26:19.537Z,8.30
2019-01-06T17:28:41.519Z,4.60
2019-01-06T17:30:47.002Z,5.60
2019-01-06T17:33:08.436Z,4.60
2019-01-06T17:35:23.197Z,5.70
2019-01-06T17:37:38.086Z,6.77
2019-01-06T17:39:41.295Z,6.90
2019-01-06T17:41:46.746Z,7.07
2019-01-06T17:44:10.401Z,7.87
2019-01-06T17:46:18.839Z,8.00
2019-01-06T17:48:40.878Z,10.63
2019-01-06T17:51:02.949Z,11.87
2019-01-06T17:53:17.585Z,10.13
2019-01-06T17:55:28.660Z,9.17
2019-01-06T17:57:49.379Z,11.63
2019-01-06T18:00:12.860Z,10.77
2019-01-06T18:02:21.271Z,12.87
2019-01-06T18:04:29.351Z,10.37
2019-01-06T18:06:34.897Z,13.67
2019-01-06T18:08:40.407Z,10.77
2019-01-06T18:10:45.843Z,17.97
2019-01-06T18:12:53.993Z,11.60
2019-01-06T18:15:02.166Z,14.57
2019-01-06T18:17:07.585Z,12.27
2019-01-06T18:19:28.165Z,12.40
2019-01-06T18:21:49.798Z,10.27
2019-01-06T18:23:55.296Z,12.73
2019-01-06T18:26:16.016Z,12.93
2019-01-06T18:28:38.141Z,12.17
2019-01-06T18:30:55.595Z,14.17
2019-01-06T18:33:06.681Z,14.07
2019-01-06T18:35:12.165Z,21.77
2019-01-06T18:37:17.624Z,15.30
2019-01-06T18:39:25.883Z,14.77
2019-01-06T18:41:34.125Z,14.90
2019-01-06T18:43:56.089Z,19.23
2019-01-06T18:46:18.014Z,13.97
2019-01-06T18:48:23.451Z,13.37
2019-01-06T18:50:31.960Z,10.30
2019-01-06T18:52:37.401Z,8.20
2019-01-06T18:54:51.958Z,12.23
2019-01-06T18:57:12.538Z,16.13
2019-01-06T18:59:29.993Z,22.53
2019-01-06T19:01:35.452Z,8.93
2019-01-06T19:03:49.682Z,15.00
2019-01-06T19:05:55.181Z,12.67
2019-01-06T19:08:06.659Z,12.97
2019-01-06T19:10:28.656Z,17.43
2019-01-06T19:12:49.199Z,14.67
2019-01-06T19:15:12.467Z,10.27
2019-01-06T19:17:40.693Z,16.47
2019-01-06T19:19:50.239Z,12.47
2019-01-06T19:22:14.098Z,17.77
2019-01-06T19:24:25.676Z,10.03
2019-01-06T19:26:40.586Z,17.77
2019-01-06T19:28:46.434Z,15.07
2019-01-06T19:30:56.826Z,15.60
2019-01-06T19:33:05.918Z,17.07
2019-01-06T19:35:23.805Z,18.77
2019-01-06T19:37:36.119Z,14.97
2019-01-06T19:39:45.389Z,11.00
2019-01-06T19:41:54.432Z,9.93
2019-01-06T19:44:00.916Z,14.20
2019-01-06T19:46:07.742Z,11.67
2019-01-06T19:48:17.378Z,14.67
2019-01-06T19:50:39.509Z,13.13
2019-01-06T19:53:05.225Z,15.77
2019-01-06T19:55:12.712Z,11.67
2019-01-06T19:57:25.219Z,11.43
2019-01-06T19:59:32.397Z,13.20
2019-01-06T20:01:41.923Z,14.77
2019-01-06T20:04:05.571Z,14.13
2019-01-06T20:06:28.192Z,13.30
2019-01-06T20:08:51.095Z,22.73
2019-01-06T20:10:58.180Z,18.10
2019-01-06T20:13:22.591Z,14.43
2019-01-06T20:15:28.845Z,13.53
2019-01-06T20:17:41.507Z,11.43
2019-01-06T20:19:53.767Z,17.53
2019-01-06T20:22:18.927Z,11.67
2019-01-06T20:24:41.000Z,21.83
2019-01-06T20:27:02.879Z,13.93
2019-01-06T20:29:15.248Z,12.67
2019-01-06T20:31:29.920Z,20.77
2019-01-06T20:33:38.851Z,12.30
2019-01-06T20:35:44.857Z,21.93
2019-01-06T20:37:50.887Z,20.33
2019-01-06T20:39:56.539Z,23.33
2019-01-06T20:42:18.541Z,16.37
2019-01-06T20:44:30.195Z,11.57
2019-01-06T20:46:52.056Z,14.67
2019-01-06T20:49:06.522Z,24.27
2019-01-06T20:51:28.387Z,9.43
2019-01-06T20:53:45.872Z,17.23
2019-01-06T20:55:51.290Z,18.30
2019-01-06T20:57:56.730Z,21.20
2019-01-06T21:00:07.951Z,20.83
2019-01-06T21:02:22.371Z,14.90
2019-01-06T21:04:45.970Z,17.57
2019-01-06T21:07:07.958Z,14.60
2019-01-06T21:09:29.883Z,25.20
2019-01-06T21:11:41.433Z,13.37
2019-01-06T21:14:05.064Z,16.10
2019-01-06T21:16:26.737Z,18.30
2019-01-06T21:18:48.642Z,17.20
2019-01-06T21:21:03.277Z,19.40
2019-01-06T21:23:09.541Z,17.13
2019-01-06T21:25:17.974Z,20.77
2019-01-06T21:27:40.199Z,15.33
2019-01-06T21:29:51.696Z,24.00
2019-01-06T21:32:06.354Z,9.90
2019-01-06T21:34:28.074Z,17.97
2019-01-06T21:36:42.406Z,23.30
2019-01-06T21:38:56.314Z,16.43
2019-01-06T21:41:18.534Z,21.60
2019-01-06T21:43:24.005Z,14.53
2019-01-06T21:45:38.539Z,17.03
2019-01-06T21:47:46.675Z,20.03
2019-01-06T21:49:52.202Z,18.57
2019-01-06T21:52:01.546Z,16.07
2019-01-06T21:54:07.117Z,19.30
2019-01-06T21:56:15.820Z,20.20
2019-01-06T21:58:24.371Z,15.47
2019-01-06T22:00:39.063Z,16.37
2019-01-06T22:02:46.309Z,10.13
2019-01-06T22:05:01.547Z,12.77
2019-01-06T22:07:07.119Z,20.30
2019-01-06T22:09:12.567Z,20.87
2019-01-06T22:11:21.299Z,18.23
2019-01-06T22:13:43.045Z,19.70
2019-01-06T22:16:03.314Z,12.53
2019-01-06T22:18:20.903Z,22.37
2019-01-06T22:20:42.588Z,17.00
2019-01-06T22:23:06.691Z,12.53
2019-01-06T22:25:15.987Z,12.87
2019-01-06T22:27:21.577Z,16.73
2019-01-06T22:29:43.365Z,12.37
2019-01-06T22:32:05.234Z,16.43
2019-01-06T22:34:21.552Z,23.33
2019-01-06T22:36:27.072Z,12.97
2019-01-06T22:38:47.666Z,24.33
2019-01-06T22:41:09.389Z,14.37
2019-01-06T22:43:28.171Z,17.03
2019-01-06T22:45:33.685Z,13.30
2019-01-06T22:47:45.853Z,18.53
2019-01-06T22:50:07.312Z,17.37
2019-01-06T22:52:27.805Z,15.10
2019-01-06T22:54:36.994Z,19.67
2019-01-06T22:57:00.980Z,20.63
2019-01-06T22:59:22.713Z,20.17
2019-01-06T23:01:34.702Z,15.20
2019-01-06T23:03:46.016Z,14.33
2019-01-06T23:05:55.515Z,14.50
2019-01-06T23:08:02.650Z,21.87
2019-01-06T23:10:20.198Z,15.67
2019-01-06T23:12:42.065Z,18.77
2019-01-06T23:15:03.855Z,15.17
2019-01-06T23:17:15.510Z,18.00
2019-01-06T23:19:20.969Z,11.07
2019-01-06T23:21:38.422Z,20.13
2019-01-06T23:23:52.799Z,17.13
2019-01-06T23:26:14.631Z,14.80
2019-01-06T23:28:25.999Z,18.07
2019-01-06T23:30:31.485Z,17.10
2019-01-06T23:32:53.412Z,15.43
2019-01-06T23:35:15.026Z,14.20
2019-01-06T23:37:23.255Z,18.83
2019-01-06T23:39:44.907Z,14.93
2019-01-06T23:41:53.069Z,18.70
2019-01-06T23:44:14.907Z,14.23
2019-01-06T23:46:29.350Z,18.07
2019-01-06T23:48:34.816Z,14.60
2019-01-06T23:50:40.287Z,17.30
2019-01-06T23:52:54.746Z,14.97
2019-01-06T23:55:16.520Z,11.33
2019-01-06T23:57:21.958Z,9.47
2019-01-06T23:59:43.733Z,17.90
